Time;durP1;ratioP1;P1;durP2;ratioP2;P2;SDS_P1;SDS_P2;PMS_P1;PMS_P2;Temp;Humidity;BMP_temperature;BMP_pressure;BME280_temperature;BME280_humidity;BME280_pressure;Samples;Min_cycle;Max_cycle;Signal;HPM_P1;HPM_P2
2022/12/29 00:01:30;;;;;;;18.70;8.23;;;;;;;8.95;nan;102322.13;4873882;29;20466;-88
2022/12/29 00:04:01;;;;;;;13.77;6.23;;;;;;;8.91;nan;102317.97;4848888;29;20458;-87
2022/12/29 00:06:29;;;;;;;14.60;5.57;;;;;;;8.90;nan;102321.69;4896258;29;20511;-88
2022/12/29 00:08:57;;;;;;;14.23;7.20;;;;;;;8.86;nan;102314.78;4867119;29;20830;-88
2022/12/29 00:11:27;;;;;;;17.23;6.50;;;;;;;8.87;nan;102322.84;4868306;29;20462;-87
2022/12/29 00:16:48;;;;;;;14.80;6.43;;;;;;;8.77;nan;102305.63;4899174;29;20953;-89
2022/12/29 00:36:06;;;;;;;10.40;4.90;;;;;;;8.69;nan;102297.28;4898856;29;20457;-88
2022/12/29 00:44:59;;;;;;;8.40;2.60;;;;;;;8.50;nan;102276.34;4874305;29;20455;-87
2022/12/29 00:47:29;;;;;;;12.50;4.10;;;;;;;8.52;nan;102284.38;4871471;29;20454;-87
2022/12/29 00:49:58;;;;;;;10.53;5.30;;;;;;;8.48;nan;102277.50;4880358;29;20497;-87
2022/12/29 00:52:35;;;;;;;9.47;5.00;;;;;;;8.46;nan;102284.97;4866825;29;20454;-88
2022/12/29 00:55:05;;;;;;;17.33;5.27;;;;;;;8.47;nan;102282.09;4882461;29;20944;-88
2022/12/29 00:57:34;;;;;;;15.90;6.83;;;;;;;8.47;nan;102278.50;4866968;29;20460;-87
2022/12/29 01:00:03;;;;;;;14.30;6.77;;;;;;;8.49;nan;102271.03;4882559;29;20829;-87
2022/12/29 01:02:30;;;;;;;8.70;5.00;;;;;;;8.50;nan;102283.66;4855380;29;20466;-88
2022/12/29 01:04:59;;;;;;;8.30;3.20;;;;;;;8.38;nan;102282.09;4851310;29;20566;-87
2022/12/29 01:07:29;;;;;;;7.07;2.50;;;;;;;8.34;nan;102289.69;4881302;29;20461;-88
2022/12/29 01:10:12;;;;;;;5.13;2.70;;;;;;;8.29;nan;102284.63;4887648;29;20486;-87
2022/12/29 01:12:40;;;;;;;5.23;2.43;;;;;;;8.33;nan;102293.41;4865075;29;20556;-87
2022/12/29 01:15:09;;;;;;;4.23;2.17;;;;;;;8.37;nan;102296.72;4854643;29;20828;-88
2022/12/29 01:17:38;;;;;;;6.70;3.77;;;;;;;8.34;nan;102288.81;4872034;29;20461;-87
2022/12/29 01:20:07;;;;;;;9.10;5.20;;;;;;;8.37;nan;102291.25;4881978;29;20465;-87
2022/12/29 01:22:37;;;;;;;10.43;5.03;;;;;;;8.35;nan;102291.41;4882277;29;20481;-87
2022/12/29 01:25:07;;;;;;;12.73;5.23;;;;;;;8.37;nan;102288.53;4898090;29;20450;-88
2022/12/29 01:27:36;;;;;;;9.63;5.17;;;;;;;8.35;nan;102282.38;4898083;29;20453;-87
2022/12/29 01:30:05;;;;;;;8.97;4.90;;;;;;;8.21;nan;102268.13;4867039;29;20487;-88
2022/12/29 01:32:33;;;;;;;9.93;4.40;;;;;;;8.30;nan;102278.16;4880148;29;20466;-88
2022/12/29 01:35:04;;;;;;;9.13;5.00;;;;;;;8.36;nan;102273.19;4867539;29;20454;-88
2022/12/29 01:37:33;;;;;;;6.47;4.10;;;;;;;8.34;nan;102273.34;4882141;29;20454;-87
2022/12/29 01:40:03;;;;;;;6.70;3.90;;;;;;;8.35;nan;102271.47;4866678;29;20828;-87
2022/12/29 01:42:35;;;;;;;11.93;4.10;;;;;;;8.34;nan;102261.56;4881923;29;20465;-88
2022/12/29 01:45:13;;;;;;;8.90;4.63;;;;;;;8.30;nan;102256.38;4855678;29;20487;-88
2022/12/29 01:47:59;;;;;;;15.60;4.30;;;;;;;8.31;nan;102255.38;4837122;29;20458;-87
2022/12/29 01:50:35;;;;;;;9.33;3.63;;;;;;;8.37;nan;102258.56;4881921;29;21012;-88
2022/12/29 01:53:14;;;;;;;8.20;4.40;;;;;;;8.35;nan;102257.84;4881991;29;20480;-88
2022/12/29 01:56:05;;;;;;;8.40;4.03;;;;;;;8.31;nan;102260.81;4897823;29;20477;-87
2022/12/29 01:58:35;;;;;;;11.00;4.50;;;;;;;8.32;nan;102261.72;4896379;29;20979;-88
2022/12/29 02:01:11;;;;;;;10.80;3.80;;;;;;;8.29;nan;102261.97;4897367;29;20466;-87
2022/12/29 02:03:40;;;;;;;7.73;3.20;;;;;;;8.34;nan;102264.31;4866792;29;20970;-87
2022/12/29 02:06:33;;;;;;;6.87;3.27;;;;;;;8.31;nan;102277.16;4881652;29;20457;-88
2022/12/29 02:09:00;;;;;;;7.53;3.20;;;;;;;8.23;nan;102263.41;4862114;29;20481;-87
2022/12/29 02:11:30;;;;;;;4.40;2.53;;;;;;;8.27;nan;102262.09;4868506;29;20478;-87
2022/12/29 02:13:59;;;;;;;5.83;3.10;;;;;;;8.28;nan;102263.81;4898533;29;20458;-89
2022/12/29 02:16:52;;;;;;;9.50;3.73;;;;;;;8.34;nan;102258.84;4882055;29;20457;-88
2022/12/29 02:19:46;;;;;;;6.43;3.80;;;;;;;8.36;nan;102267.75;4879010;29;20468;-87
2022/12/29 02:22:55;;;;;;;5.90;3.17;;;;;;;8.28;nan;102255.66;4881564;29;20478;-88
2022/12/29 02:26:10;;;;;;;5.87;2.90;;;;;;;8.35;nan;102261.44;4882076;29;20457;-87
2022/12/29 02:28:54;;;;;;;13.73;3.93;;;;;;;8.37;nan;102261.31;4858987;29;20463;-88
2022/12/29 02:31:46;;;;;;;9.90;3.90;;;;;;;8.35;nan;102255.13;4857927;29;20490;-87
2022/12/29 02:34:40;;;;;;;8.73;4.43;;;;;;;8.29;nan;102251.94;4822745;29;20907;-87
2022/12/29 02:37:17;;;;;;;7.30;4.03;;;;;;;8.34;nan;102251.53;4839299;29;20460;-87
2022/12/29 02:39:59;;;;;;;7.60;4.10;;;;;;;8.36;nan;102251.41;4840629;29;20876;-88
2022/12/29 02:42:49;;;;;;;7.40;3.70;;;;;;;8.34;nan;102248.81;4839121;29;20455;-86
2022/12/29 02:45:57;;;;;;;8.33;4.00;;;;;;;8.30;nan;102264.56;4851988;29;20447;-88
2022/12/29 02:48:47;;;;;;;6.43;3.43;;;;;;;8.31;nan;102258.09;4843668;29;20459;-87
2022/12/29 02:51:56;;;;;;;5.03;3.20;;;;;;;8.32;nan;102254.41;4861104;29;20471;-87
2022/12/29 02:57:36;;;;;;;6.63;3.60;;;;;;;8.34;nan;102259.72;4861870;29;20432;-86
2022/12/29 03:00:07;;;;;;;8.63;3.20;;;;;;;8.32;nan;102248.09;4876781;29;20549;-87
2022/12/29 03:02:46;;;;;;;7.27;4.10;;;;;;;8.30;nan;102242.75;4869876;29;20973;-87
2022/12/29 03:05:28;;;;;;;10.30;3.43;;;;;;;8.28;nan;102243.91;4875404;29;20461;-90
2022/12/29 03:08:05;;;;;;;5.70;2.60;;;;;;;8.26;nan;102241.34;4881077;29;20817;-87
2022/12/29 03:10:52;;;;;;;4.47;1.70;;;;;;;8.19;nan;102248.34;4884295;29;20987;-88
2022/12/29 03:16:33;;;;;;;5.90;2.50;;;;;;;8.17;nan;102239.47;4862035;29;20455;-88
2022/12/29 03:19:28;;;;;;;5.97;3.00;;;;;;;8.18;nan;102248.50;4846229;29;20459;-88
2022/12/29 03:22:30;;;;;;;11.07;2.70;;;;;;;8.11;nan;102244.59;4846559;29;20542;-88
2022/12/29 03:25:30;;;;;;;6.93;2.57;;;;;;;8.18;nan;102260.25;4830934;29;20477;-87
2022/12/29 03:28:10;;;;;;;4.30;2.30;;;;;;;8.18;nan;102259.38;4858108;29;20538;-87
2022/12/29 03:30:41;;;;;;;4.10;1.97;;;;;;;8.19;nan;102261.97;4846006;29;20492;-88
2022/12/29 03:33:13;;;;;;;5.50;2.60;;;;;;;8.22;nan;102263.56;4856024;29;20464;-88
2022/12/29 03:35:42;;;;;;;6.03;3.20;;;;;;;8.22;nan;102266.28;4859948;29;20471;-88
2022/12/29 03:38:18;;;;;;;7.37;3.83;;;;;;;8.18;nan;102254.78;4815606;29;20519;-88
2022/12/29 03:40:49;;;;;;;7.10;3.40;;;;;;;8.17;nan;102260.38;4861979;29;20469;-87
2022/12/29 03:43:17;;;;;;;6.27;3.00;;;;;;;8.16;nan;102255.94;4841540;29;20451;-87
2022/12/29 03:45:45;;;;;;;10.60;3.00;;;;;;;8.15;nan;102265.97;4846586;29;20851;-87
2022/12/29 03:48:14;;;;;;;5.20;2.90;;;;;;;8.15;nan;102265.97;4830911;29;20538;-88
2022/12/29 03:50:41;;;;;;;8.37;3.57;;;;;;;8.12;nan;102258.06;4867267;29;20496;-87
2022/12/29 03:53:10;;;;;;;5.47;2.83;;;;;;;8.13;nan;102253.50;4884662;29;20450;-88
2022/12/29 03:55:38;;;;;;;5.50;2.50;;;;;;;8.08;nan;102248.47;4881369;29;20455;-87
2022/12/29 03:58:09;;;;;;;6.80;3.00;;;;;;;8.17;nan;102257.66;4896748;29;20459;-87
2022/12/29 04:00:39;;;;;;;6.03;2.63;;;;;;;8.10;nan;102243.75;4881194;29;20462;-87
2022/12/29 04:03:08;;;;;;;13.17;2.10;;;;;;;8.20;nan;102255.53;4880601;29;20458;-87
2022/12/29 04:05:37;;;;;;;3.80;2.43;;;;;;;8.19;nan;102251.06;4881180;29;20455;-88
2022/12/29 04:08:06;;;;;;;6.10;2.60;;;;;;;8.21;nan;102251.81;4891319;29;20454;-88
2022/12/29 04:10:35;;;;;;;5.90;2.77;;;;;;;8.23;nan;102252.53;4882908;29;20489;-88
2022/12/29 04:13:03;;;;;;;8.23;2.67;;;;;;;8.25;nan;102247.78;4884099;29;20509;-87
2022/12/29 04:15:33;;;;;;;4.70;2.20;;;;;;;8.25;nan;102247.78;4899361;29;20466;-88
2022/12/29 04:18:00;;;;;;;3.33;2.30;;;;;;;8.21;nan;102243.63;4883678;29;20855;-87
2022/12/29 04:23:14;;;;;;;4.80;1.80;;;;;;;8.24;nan;102243.34;4886406;29;20821;-87
2022/12/29 04:25:49;;;;;;;9.13;2.37;;;;;;;8.28;nan;102249.34;4899724;29;20467;-91
2022/12/29 04:28:20;;;;;;;3.90;2.20;;;;;;;8.30;nan;102244.63;4869841;29;20968;-88
2022/12/29 04:30:47;;;;;;;4.77;2.37;;;;;;;8.29;nan;102235.59;4898856;29;20498;-88
2022/12/29 04:33:15;;;;;;;6.93;2.20;;;;;;;8.28;nan;102230.28;4883318;29;20457;-87
2022/12/29 04:35:43;;;;;;;3.80;2.10;;;;;;;8.37;nan;102243.09;4869819;29;20458;-87
2022/12/29 04:38:11;;;;;;;7.53;2.20;;;;;;;8.38;nan;102233.06;4851252;29;20455;-88
2022/12/29 04:40:41;;;;;;;4.70;2.30;;;;;;;8.37;nan;102228.63;4868148;29;20462;-88
2022/12/29 04:43:09;;;;;;;6.90;1.80;;;;;;;8.40;nan;102236.50;4898840;29;20450;-88
2022/12/29 04:45:47;;;;;;;5.27;2.17;;;;;;;8.37;nan;102231.34;4868753;29;20458;-87
2022/12/29 04:48:18;;;;;;;3.53;1.93;;;;;;;8.41;nan;102243.69;4883508;29;20575;-88
2022/12/29 04:50:49;;;;;;;6.00;1.70;;;;;;;8.43;nan;102234.34;4878825;29;20494;-87
2022/12/29 04:53:18;;;;;;;3.50;2.00;;;;;;;8.47;nan;102252.13;4864806;29;20456;-87
2022/12/29 04:55:50;;;;;;;3.03;1.97;;;;;;;8.46;nan;102246.84;4864503;29;20453;-87
2022/12/29 04:58:21;;;;;;;4.90;2.47;;;;;;;8.43;nan;102241.66;4865031;29;20451;-87
2022/12/29 05:00:52;;;;;;;7.03;2.77;;;;;;;8.50;nan;102245.53;4864326;29;20470;-87
2022/12/29 05:03:21;;;;;;;7.73;3.00;;;;;;;8.42;nan;102234.50;4864743;29;21176;-88
2022/12/29 05:05:54;;;;;;;7.87;2.83;;;;;;;8.49;nan;102247.38;4879566;29;20485;-87
2022/12/29 05:08:24;;;;;;;4.60;2.63;;;;;;;8.48;nan;102237.50;4879976;29;20453;-87
2022/12/29 05:10:54;;;;;;;6.70;2.33;;;;;;;8.38;nan;102233.91;4864585;29;20829;-87
2022/12/29 05:13:30;;;;;;;4.13;2.17;;;;;;;8.41;nan;102238.22;4878441;29;20455;-87
2022/12/29 05:16:00;;;;;;;7.40;2.60;;;;;;;8.48;nan;102244.81;4878702;29;20462;-87
2022/12/29 05:18:35;;;;;;;7.70;2.00;;;;;;;8.46;nan;102241.38;4882719;29;20471;-87
2022/12/29 05:21:08;;;;;;;4.53;2.20;;;;;;;8.47;nan;102240.34;4898330;29;20968;-87
2022/12/29 05:23:40;;;;;;;6.83;2.43;;;;;;;8.40;nan;102231.06;4867034;29;20457;-88
2022/12/29 05:26:08;;;;;;;7.53;2.77;;;;;;;8.53;nan;102242.50;4882770;29;20457;-87
2022/12/29 05:28:39;;;;;;;4.60;2.20;;;;;;;8.57;nan;102243.97;4852479;29;20460;-87
2022/12/29 05:31:09;;;;;;;4.20;2.20;;;;;;;8.59;nan;102242.81;4882127;29;20493;-88
2022/12/29 05:33:38;;;;;;;4.13;2.10;;;;;;;8.58;nan;102237.50;4896275;29;20461;-87
2022/12/29 05:36:08;;;;;;;5.80;2.10;;;;;;;8.56;nan;102244.97;4897151;29;20822;-87
2022/12/29 05:38:36;;;;;;;6.47;2.13;;;;;;;8.62;nan;102247.13;4852384;29;20454;-87
2022/12/29 05:41:06;;;;;;;4.17;2.10;;;;;;;8.52;nan;102219.00;4852302;29;20484;-87
2022/12/29 05:43:34;;;;;;;5.37;1.83;;;;;;;8.62;nan;102247.97;4878788;29;20465;-87
2022/12/29 05:46:03;;;;;;;3.57;2.30;;;;;;;8.64;nan;102251.44;4863888;29;20829;-87
2022/12/29 05:48:34;;;;;;;4.90;2.60;;;;;;;8.60;nan;102239.09;4863981;29;20958;-88
2022/12/29 05:51:04;;;;;;;6.60;2.60;;;;;;;8.66;nan;102253.97;4869448;29;20477;-88
2022/12/29 05:53:34;;;;;;;5.93;2.87;;;;;;;8.68;nan;102257.41;4866515;29;20461;-87
2022/12/29 05:56:01;;;;;;;6.67;2.60;;;;;;;8.70;nan;102260.88;4866971;29;20462;-87
2022/12/29 05:58:30;;;;;;;4.63;2.50;;;;;;;8.73;nan;102259.72;4866105;29;20467;-88
2022/12/29 06:00:58;;;;;;;3.80;2.50;;;;;;;8.72;nan;102258.84;4881758;29;20466;-87
2022/12/29 06:03:28;;;;;;;3.97;2.20;;;;;;;8.77;nan;102272.94;4852444;29;20446;-88
2022/12/29 06:05:58;;;;;;;6.10;2.20;;;;;;;8.78;nan;102277.38;4882431;29;20481;-88
2022/12/29 06:08:25;;;;;;;5.97;2.60;;;;;;;8.78;nan;102271.91;4881957;29;20454;-87
2022/12/29 06:11:01;;;;;;;7.07;3.10;;;;;;;8.84;nan;102284.97;4851354;29;20989;-87
2022/12/29 06:13:30;;;;;;;3.57;2.50;;;;;;;8.84;nan;102284.97;4882080;29;20504;-87
2022/12/29 06:15:58;;;;;;;4.87;2.13;;;;;;;8.85;nan;102283.94;4866656;29;20514;-88
2022/12/29 06:18:28;;;;;;;5.77;1.90;;;;;;;8.90;nan;102294.44;4866861;29;20457;-87
2022/12/29 06:21:03;;;;;;;4.00;2.07;;;;;;;8.85;nan;102292.13;4852844;29;20470;-88
2022/12/29 06:23:31;;;;;;;4.10;2.13;;;;;;;8.93;nan;102300.47;4870231;29;20472;-87
2022/12/29 06:25:59;;;;;;;6.00;2.43;;;;;;;8.93;nan;102296.88;4884825;29;20457;-87
2022/12/29 06:28:28;;;;;;;7.40;2.40;;;;;;;8.94;nan;102296.72;4884386;29;20967;-87
2022/12/29 06:31:05;;;;;;;5.57;2.60;;;;;;;8.95;nan;102303.03;4884577;29;20477;-88
2022/12/29 06:33:35;;;;;;;11.90;3.93;;;;;;;8.96;nan;102299.31;4915662;29;20459;-87
2022/12/29 06:36:05;;;;;;;5.27;2.30;;;;;;;8.97;nan;102301.03;4899764;29;20453;-88
2022/12/29 06:38:35;;;;;;;4.70;2.60;;;;;;;9.02;nan;102308.78;4885688;29;20947;-87
2022/12/29 06:41:03;;;;;;;4.13;2.60;;;;;;;9.01;nan;102307.91;4900498;29;20460;-87
2022/12/29 06:43:33;;;;;;;6.60;3.13;;;;;;;9.03;nan;102303.19;4884823;29;20457;-87
2022/12/29 06:46:01;;;;;;;7.33;2.50;;;;;;;9.09;nan;102309.91;4885540;29;20596;-87
2022/12/29 06:48:29;;;;;;;6.80;2.50;;;;;;;9.07;nan;102295.53;4899772;29;20445;-87
2022/12/29 06:50:58;;;;;;;5.40;2.80;;;;;;;9.13;nan;102311.34;4884559;29;20471;-87
2022/12/29 06:53:27;;;;;;;5.67;3.27;;;;;;;9.13;nan;102327.69;4868952;29;20987;-87
2022/12/29 06:55:56;;;;;;;5.73;3.20;;;;;;;9.14;nan;102326.69;4847270;29;20454;-87
2022/12/29 06:58:25;;;;;;;9.97;3.50;;;;;;;9.11;nan;102313.34;4861989;29;20455;-88
2022/12/29 07:00:55;;;;;;;9.87;5.40;;;;;;;9.14;nan;102316.66;4846222;29;20990;-87
2022/12/29 07:03:26;;;;;;;10.80;4.67;;;;;;;9.13;nan;102314.94;4862029;29;20492;-87
2022/12/29 07:05:55;;;;;;;5.20;3.60;;;;;;;9.11;nan;102307.91;4847206;29;20535;-87
2022/12/29 07:08:25;;;;;;;5.93;2.83;;;;;;;9.15;nan;102312.06;4859709;29;20459;-88
2022/12/29 07:10:53;;;;;;;6.30;2.93;;;;;;;9.20;nan;102312.47;4823055;29;20479;-87
2022/12/29 07:13:20;;;;;;;10.67;4.20;;;;;;;9.20;nan;102312.47;4869635;29;20461;-87
2022/12/29 07:15:49;;;;;;;7.57;3.53;;;;;;;9.22;nan;102307.75;4869354;29;20914;-87
2022/12/29 07:18:20;;;;;;;7.60;4.20;;;;;;;9.21;nan;102303.28;4904396;29;20822;-88
2022/12/29 07:20:54;;;;;;;8.30;4.90;;;;;;;9.23;nan;102301.28;4915013;29;20468;-88
2022/12/29 07:23:23;;;;;;;10.23;5.10;;;;;;;9.19;nan;102288.94;4899507;29;20489;-88
2022/12/29 07:26:08;;;;;;;11.03;5.90;;;;;;;9.24;nan;102303.84;4884766;29;20968;-89
2022/12/29 07:28:41;;;;;;;11.23;5.03;;;;;;;9.26;nan;102314.59;4889106;29;20458;-89
2022/12/29 07:31:16;;;;;;;10.53;5.40;;;;;;;9.26;nan;102311.88;4877964;29;20473;-88
2022/12/29 07:33:44;;;;;;;11.50;4.80;;;;;;;9.24;nan;102313.88;4883243;29;20951;-89
2022/12/29 07:36:16;;;;;;;12.03;6.43;;;;;;;9.27;nan;102329.97;4898968;29;20461;-89
2022/12/29 07:38:44;;;;;;;10.13;5.60;;;;;;;9.22;nan;102327.69;4887324;29;20460;-88
2022/12/29 07:41:13;;;;;;;7.80;4.50;;;;;;;9.24;nan;102320.22;4873506;29;20464;-86
2022/12/29 07:43:48;;;;;;;17.90;6.33;;;;;;;9.27;nan;102327.25;4903633;29;20452;-87
2022/12/29 07:46:17;;;;;;;24.00;4.70;;;;;;;9.19;nan;102324.41;4887646;29;20453;-93
2022/12/29 07:49:06;;;;;;;13.93;4.23;;;;;;;9.19;nan;102327.13;4879463;29;20441;-88
2022/12/29 07:51:36;;;;;;;12.30;4.27;;;;;;;9.15;nan;102332.00;4903363;29;20493;-87
2022/12/29 07:54:06;;;;;;;10.03;3.83;;;;;;;9.14;nan;102343.94;4903336;29;20475;-89
2022/12/29 07:56:34;;;;;;;11.20;3.87;;;;;;;9.10;nan;102345.22;4903261;29;20475;-88
2022/12/29 07:59:25;;;;;;;9.60;4.53;;;;;;;9.02;nan;102341.50;4872603;29;20858;-89
2022/12/29 08:01:53;;;;;;;10.13;3.63;;;;;;;9.05;nan;102346.66;4829291;29;20527;-87
2022/12/29 08:04:23;;;;;;;7.97;4.63;;;;;;;9.04;nan;102347.69;4845965;29;20467;-87
2022/12/29 08:06:51;;;;;;;6.17;3.50;;;;;;;9.03;nan;102365.03;4830797;29;20455;-89
2022/12/29 08:09:19;;;;;;;13.10;4.17;;;;;;;8.94;nan;102359.44;4831680;29;20439;-87
2022/12/29 08:11:51;;;;;;;12.27;3.80;;;;;;;9.00;nan;102360.75;4816695;29;20494;-85
2022/12/29 08:14:19;;;;;;;7.50;4.00;;;;;;;9.02;nan;102366.91;4861357;29;20474;-86
2022/12/29 08:16:49;;;;;;;8.30;4.70;;;;;;;9.08;nan;102369.03;4860643;29;20488;-86
2022/12/29 08:19:21;;;;;;;13.57;3.70;;;;;;;9.12;nan;102381.38;4860988;29;20454;-87
2022/12/29 08:21:49;;;;;;;8.70;3.73;;;;;;;9.10;nan;102372.50;4845218;29;20836;-85
2022/12/29 08:24:17;;;;;;;8.23;5.13;;;;;;;9.09;nan;102376.22;4845354;29;20821;-87
2022/12/29 08:26:53;;;;;;;6.70;4.20;;;;;;;9.13;nan;102380.38;4860960;29;20858;-86
2022/12/29 08:29:23;;;;;;;6.07;3.73;;;;;;;9.15;nan;102366.59;4815183;29;20803;-86
2022/12/29 08:31:51;;;;;;;9.10;4.40;;;;;;;9.26;nan;102380.09;4875626;29;20487;-88
2022/12/29 08:34:21;;;;;;;12.20;5.17;;;;;;;9.30;nan;102373.34;4895665;29;20528;-87
2022/12/29 08:36:48;;;;;;;11.20;4.10;;;;;;;9.35;nan;102371.91;4867441;29;20470;-88
2022/12/29 08:39:17;;;;;;;14.93;4.80;;;;;;;9.36;nan;102372.75;4901050;29;20962;-90
2022/12/29 08:41:47;;;;;;;13.77;4.70;;;;;;;9.44;nan;102366.56;4886662;29;20453;-90
2022/12/29 08:44:27;;;;;;;17.60;5.10;;;;;;;9.50;nan;102375.03;4902430;29;20433;-90
2022/12/29 08:47:01;;;;;;;15.20;5.03;;;;;;;9.56;nan;102379.03;4886398;29;20507;-90
2022/12/29 08:49:29;;;;;;;22.70;4.40;;;;;;;9.58;nan;102366.97;4883397;29;20442;-89
2022/12/29 08:52:04;;;;;;;12.63;4.83;;;;;;;9.66;nan;102380.72;4886674;29;20482;-93
2022/12/29 08:54:35;;;;;;;13.17;5.17;;;;;;;9.73;nan;102386.47;4918216;29;20543;-89
2022/12/29 08:57:14;;;;;;;13.33;5.07;;;;;;;9.81;nan;102392.06;4903137;29;20456;-89
2022/12/29 08:59:49;;;;;;;10.33;5.00;;;;;;;9.88;nan;102392.31;4902935;29;20457;-89
2022/12/29 09:02:17;;;;;;;8.53;4.77;;;;;;;9.93;nan;102392.72;4884101;29;20462;-88
2022/12/29 09:04:50;;;;;;;14.03;4.60;;;;;;;10.05;nan;102396.97;4900752;29;20522;-90
2022/12/29 09:07:18;;;;;;;21.23;7.40;;;;;;;10.11;nan;102390.94;4886666;29;20876;-88
2022/12/29 09:09:55;;;;;;;9.53;5.30;;;;;;;10.26;nan;102394.91;4870231;29;20462;-92
2022/12/29 09:12:25;;;;;;;13.97;5.50;;;;;;;10.30;nan;102396.34;4902975;29;21014;-90
2022/12/29 09:15:22;;;;;;;12.03;5.60;;;;;;;10.39;nan;102395.41;4903043;29;20467;-94
2022/12/29 09:18:00;;;;;;;23.93;8.40;;;;;;;10.46;nan;102400.28;4887006;29;20449;-93
2022/12/29 09:20:42;;;;;;;14.97;9.00;;;;;;;10.48;nan;102398.25;4902878;29;20970;-91
2022/12/29 09:24:00;;;;;;;16.67;8.83;;;;;;;10.57;nan;102409.16;4885502;29;20472;-93
2022/12/29 09:26:58;;;;;;;22.43;12.00;;;;;;;10.64;nan;102401.16;4902572;29;20980;-92
2022/12/29 09:29:50;;;;;;;21.80;12.13;;;;;;;10.69;nan;102407.06;4903622;29;20608;-92
2022/12/29 09:32:24;;;;;;;20.33;9.13;;;;;;;10.76;nan;102412.78;4904559;29;20503;-91
2022/12/29 09:34:58;;;;;;;17.83;9.10;;;;;;;10.84;nan;102410.09;4887368;29;20453;-92
2022/12/29 09:37:50;;;;;;;15.77;9.37;;;;;;;10.94;nan;102408.19;4905207;29;20520;-91
2022/12/29 09:40:31;;;;;;;22.17;9.70;;;;;;;11.06;nan;102399.56;4887610;29;20453;-92
2022/12/29 09:43:36;;;;;;;17.50;8.73;;;;;;;11.19;nan;102404.66;4902290;29;20464;-90
2022/12/29 09:46:26;;;;;;;19.10;9.60;;;;;;;11.29;nan;102394.47;4920730;29;20472;-91
2022/12/29 09:49:16;;;;;;;19.13;11.67;;;;;;;11.47;nan;102408.16;4903049;29;20499;-92
2022/12/29 09:51:47;;;;;;;17.63;10.30;;;;;;;11.57;nan;102408.03;4894709;29;20488;-91
2022/12/29 09:54:23;;;;;;;26.87;12.00;;;;;;;11.70;nan;102403.88;4921788;29;20460;-92
2022/12/29 09:56:51;;;;;;;18.53;10.60;;;;;;;11.77;nan;102410.44;4903588;29;20457;-91
2022/12/29 09:59:21;;;;;;;25.60;14.13;;;;;;;11.97;nan;102404.75;4886408;29;20536;-90
2022/12/29 10:02:12;;;;;;;31.83;18.77;;;;;;;12.24;nan;102420.16;4870648;29;20892;-91
2022/12/29 10:04:40;;;;;;;51.03;28.87;;;;;;;12.43;nan;102414.41;4902402;29;20453;-91
2022/12/29 10:07:24;;;;;;;48.53;23.63;;;;;;;12.70;nan;102414.16;4879662;29;21244;-92
2022/12/29 10:10:01;;;;;;;43.27;25.37;;;;;;;12.95;nan;102412.34;4874024;29;20449;-92
2022/12/29 10:12:31;;;;;;;41.60;25.17;;;;;;;13.16;nan;102408.28;4901551;29;20492;-92
2022/12/29 10:15:05;;;;;;;36.17;18.20;;;;;;;13.39;nan;102420.31;4901466;29;20461;-92
2022/12/29 10:17:48;;;;;;;38.63;16.93;;;;;;;13.63;nan;102417.59;4901390;29;20456;-92
2022/12/29 10:20:19;;;;;;;30.73;13.20;;;;;;;13.90;nan;102415.47;4886574;29;20449;-91
2022/12/29 10:23:03;;;;;;;29.63;13.53;;;;;;;14.17;nan;102426.06;4900927;29;20469;-91
2022/12/29 10:25:32;;;;;;;27.53;10.90;;;;;;;14.34;nan;102418.63;4887610;29;20457;-91
2022/12/29 10:28:03;;;;;;;23.47;11.73;;;;;;;14.64;nan;102422.47;4871149;29;20457;-92
2022/12/29 10:30:33;;;;;;;26.47;9.20;;;;;;;14.89;nan;102432.31;4887051;29;20493;-92
2022/12/29 10:33:05;;;;;;;20.13;9.00;;;;;;;15.21;nan;102431.25;4886365;29;21019;-91
2022/12/29 10:35:38;;;;;;;35.03;7.27;;;;;;;15.45;nan;102424.69;4887180;29;20448;-92
2022/12/29 10:38:18;;;;;;;25.67;6.30;;;;;;;15.71;nan;102424.34;4887904;29;20461;-92
2022/12/29 10:40:53;;;;;;;18.70;7.07;;;;;;;15.94;nan;102416.00;4917860;29;20951;-91
2022/12/29 10:43:45;;;;;;;19.53;7.43;;;;;;;16.15;nan;102421.66;4886548;29;20467;-92
2022/12/29 10:46:18;;;;;;;20.27;4.60;;;;;;;16.27;nan;102420.13;4888457;29;21012;-91
2022/12/29 10:48:46;;;;;;;11.20;2.90;;;;;;;16.35;nan;102408.13;4886484;29;20472;-91
2022/12/29 10:51:31;;;;;;;20.50;4.83;;;;;;;16.44;nan;102412.50;4886748;29;20528;-92
2022/12/29 10:54:23;;;;;;;14.20;3.50;;;;;;;16.50;nan;102407.06;4886515;29;20456;-91
2022/12/29 10:57:02;;;;;;;15.07;4.33;;;;;;;16.57;nan;102391.44;4898203;29;20471;-89
2022/12/29 10:59:32;;;;;;;17.13;4.17;;;;;;;16.72;nan;102396.13;4902016;29;20544;-89
2022/12/29 11:02:11;;;;;;;10.23;4.60;;;;;;;16.84;nan;102398.19;4904054;29;20437;-88
2022/12/29 11:05:02;;;;;;;19.00;3.50;;;;;;;16.93;nan;102401.69;4912032;29;20463;-88
2022/12/29 11:12:58;;;;;;;9.43;2.23;;;;;;;17.15;nan;102397.00;5194519;23;20988;-91
2022/12/29 11:15:26;;;;;;;9.03;2.00;;;;;;;17.22;nan;102390.50;4887069;29;20481;-90
2022/12/29 11:17:57;;;;;;;17.23;3.10;;;;;;;17.37;nan;102392.34;4871394;29;20461;-90
2022/12/29 11:20:34;;;;;;;12.53;2.27;;;;;;;17.46;nan;102402.22;4871799;29;20463;-90
2022/12/29 11:23:03;;;;;;;13.23;2.67;;;;;;;17.54;nan;102388.25;4887264;29;20447;-90
2022/12/29 11:25:30;;;;;;;15.97;2.33;;;;;;;17.71;nan;102388.81;4886379;29;20458;-89
2022/12/29 11:28:04;;;;;;;14.33;2.00;;;;;;;17.82;nan;102397.44;4886667;29;20462;-90
2022/12/29 11:30:32;;;;;;;5.70;1.83;;;;;;;17.87;nan;102394.09;4871717;29;20896;-90
2022/12/29 11:32:59;;;;;;;12.63;2.87;;;;;;;17.93;nan;102407.94;4870593;29;20944;-90
2022/12/29 11:35:45;;;;;;;10.60;1.93;;;;;;;18.02;nan;102403.13;4870703;29;20967;-90
2022/12/29 11:38:38;;;;;;;8.27;2.20;;;;;;;18.11;nan;102403.81;4871233;29;20445;-90
2022/12/29 11:41:06;;;;;;;19.23;2.47;;;;;;;18.11;nan;102388.06;4856525;29;20537;-90
2022/12/29 11:43:36;;;;;;;10.00;2.03;;;;;;;18.19;nan;102398.97;4870645;29;20438;-90
2022/12/29 11:46:04;;;;;;;13.03;2.73;;;;;;;18.23;nan;102388.34;4862949;29;20508;-90
2022/12/29 11:48:39;;;;;;;13.93;2.37;;;;;;;18.29;nan;102380.06;4870556;29;20457;-90
2022/12/29 11:51:07;;;;;;;11.17;2.97;;;;;;;18.34;nan;102387.75;4870949;29;20816;-90
2022/12/29 11:53:45;;;;;;;11.40;2.90;;;;;;;18.43;nan;102389.31;4870091;29;20489;-90
2022/12/29 11:56:15;;;;;;;11.90;2.70;;;;;;;18.51;nan;102389.13;4885384;29;20457;-90
2022/12/29 11:58:43;;;;;;;9.30;2.10;;;;;;;18.59;nan;102377.06;4855378;29;20453;-90
2022/12/29 12:01:40;;;;;;;8.23;2.33;;;;;;;18.76;nan;102381.16;4870310;29;20493;-90
2022/12/29 12:04:14;;;;;;;13.17;2.67;;;;;;;18.76;nan;102366.47;4877979;29;20458;-91
2022/12/29 12:06:48;;;;;;;13.33;2.00;;;;;;;18.79;nan;102366.91;4885656;29;20457;-89
2022/12/29 12:09:37;;;;;;;12.60;2.20;;;;;;;18.91;nan;102364.38;4885349;29;20462;-90
2022/12/29 12:12:04;;;;;;;8.80;3.77;;;;;;;18.92;nan;102360.53;4869596;29;20466;-90
2022/12/29 12:14:36;;;;;;;12.23;2.60;;;;;;;18.86;nan;102362.22;4870804;29;20450;-90
2022/12/29 12:17:12;;;;;;;5.33;2.40;;;;;;;18.92;nan;102357.75;4885498;29;20916;-90
2022/12/29 12:19:47;;;;;;;11.17;2.87;;;;;;;19.00;nan;102365.03;4869798;29;20461;-90
2022/12/29 12:22:33;;;;;;;9.73;2.50;;;;;;;19.04;nan;102347.78;4885112;29;20453;-90
2022/12/29 12:25:29;;;;;;;24.23;3.07;;;;;;;19.15;nan;102349.06;4869960;29;20458;-90
2022/12/29 12:27:57;;;;;;;6.83;1.57;;;;;;;19.27;nan;102337.13;4886116;29;21001;-90
2022/12/29 12:30:28;;;;;;;6.40;1.90;;;;;;;19.35;nan;102338.00;4884936;29;20934;-90
2022/12/29 12:33:10;;;;;;;13.90;2.63;;;;;;;19.40;nan;102333.53;4869123;29;20497;-90
2022/12/29 12:36:09;;;;;;;7.83;1.50;;;;;;;19.49;nan;102323.91;4885962;29;20445;-90
2022/12/29 12:39:32;;;;;;;8.00;1.90;;;;;;;19.53;nan;102325.22;4868995;29;20461;-90
2022/12/29 12:42:09;;;;;;;10.27;2.20;;;;;;;19.57;nan;102332.06;4824630;29;20465;-90
2022/12/29 12:44:54;;;;;;;9.53;2.33;;;;;;;19.62;nan;102312.00;4809946;29;20826;-90
2022/12/29 12:47:40;;;;;;;13.63;2.17;;;;;;;19.69;nan;102304.50;4794625;29;20465;-90
2022/12/29 12:50:25;;;;;;;12.83;2.07;;;;;;;19.73;nan;102308.56;4809766;29;20976;-90
2022/12/29 12:53:06;;;;;;;11.63;3.43;;;;;;;19.74;nan;102303.88;4813089;29;20492;-90
2022/12/29 12:55:39;;;;;;;10.30;1.53;;;;;;;19.75;nan;102295.31;4809768;29;20449;-90
2022/12/29 12:58:46;;;;;;;10.57;1.63;;;;;;;19.81;nan;102294.47;4809796;29;20552;-89
2022/12/29 13:01:13;;;;;;;11.47;1.87;;;;;;;19.78;nan;102286.56;4809922;29;20979;-90